This is the latest recevied weather packets stored in our database for station/object K9MWD. If no packets are shown the sender has not sent any weather packets the latest 10 day(s).
| Time | Temp. | Humidity | Pressure | Rain* | Wind** | Luminosity | Snow |
|---|---|---|---|---|---|---|---|
| 1788645937 | 37.22° C | 40% | 1010.8 hPa | 0 mm | - | 392 W/m² | - |
| 1788645633 | 36.67° C | 42% | 1010.9 hPa | 0 mm | - | 412 W/m² | - |
| 1788645332 | 36.67° C | 41% | 1011 hPa | 0 mm | - | 292 W/m² | - |
| 1788645029 | 36.67° C | 42% | 1011.1 hPa | 0 mm | - | 422 W/m² | - |
| 1788644725 | 36.11° C | 43% | 1011.1 hPa | 0 mm | - | 289 W/m² | - |
| 1788644419 | 36.11° C | 43% | 1011 hPa | 0 mm | - | 138 W/m² | - |
| 1788644115 | 36.11° C | 43% | 1011 hPa | 0 mm | - | 120 W/m² | - |
| 1788643810 | 36.11° C | 43% | 1011.1 hPa | 0 mm | - | 156 W/m² | - |
| 1788643505 | 36.67° C | 43% | 1011.3 hPa | 0 mm | - | 175 W/m² | - |
| 1788643204 | 37.22° C | 42% | 1011.2 hPa | 0 mm | - | 200 W/m² | - |
| 1788642899 | 38.33° C | 40% | 1011 hPa | 0 mm | - | 206 W/m² | - |
| 1788642595 | 38.33° C | 39% | 1011.1 hPa | 0 mm | - | 661 W/m² | - |
| 1788642291 | 37.78° C | 40% | 1011.2 hPa | 0 mm | - | 694 W/m² | - |
| 1788641990 | 37.22° C | 41% | 1011.3 hPa | 0 mm | - | 709 W/m² | - |
| 1788641685 | 37.22° C | 42% | 1011.4 hPa | 0 mm | - | 187 W/m² | - |
| 1788641384 | 38.33° C | 39% | 1011.6 hPa | 0 mm | - | 184 W/m² | - |
| 1788641080 | 37.78° C | 41% | 1011.7 hPa | 0 mm | - | 737 W/m² | - |
| 1788640778 | 37.78° C | 40% | 1011.9 hPa | 0 mm | - | 702 W/m² | - |
| 1788640474 | 38.33° C | 40% | 1011.7 hPa | 0 mm | - | 809 W/m² | - |
| 1788640170 | 37.22° C | 40% | 1011.7 hPa | 0 mm | - | 815 W/m² | - |
| 1788639865 | 36.67° C | 42% | 1011.8 hPa | 0 mm | - | 233 W/m² | - |
| 1788639560 | 37.22° C | 42% | 1012 hPa | 0 mm | - | 326 W/m² | - |
| 1788639255 | 37.22° C | 42% | 1012 hPa | 0 mm | - | 271 W/m² | - |
| 1788638955 | 36.11° C | 43% | 1012.1 hPa | 0 mm | - | 834 W/m² | - |
| 1788638651 | 36.67° C | 46% | 1012.1 hPa | 0 mm | - | 837 W/m² | - |
* Rain latest hour (hover to see other rain measurements)
** Current wind speed in m/s (hover to see current wind gust speed)